Time,TemperatureF,DewpointF,PressureIn,WindDirection,WindDirectionDegrees,WindSpeedMPH,WindSpeedGustMPH,Humidity,HourlyPrecipIn,Conditions,Clouds,dailyrainin,SoftwareType,DateUTC
2013-11-13 00:05:00,47.7,45.8,30.36,NE,45,0.0,-999.0,93,-99.99,,,0.00,Acu-Link.com,2013-11-13 08:05:00,
2013-11-13 00:21:00,47.3,45.4,30.37,NE,45,0.0,-999.0,93,-99.99,,,0.00,Acu-Link.com,2013-11-13 08:21:00,
2013-11-13 00:36:00,47.1,45.5,30.36,NE,45,0.0,-999.0,94,-99.99,,,0.00,Acu-Link.com,2013-11-13 08:36:00,
2013-11-13 00:51:00,46.8,45.2,30.36,NE,45,0.0,-999.0,94,-99.99,,,0.00,Acu-Link.com,2013-11-13 08:51:00,
2013-11-13 01:06:00,46.2,44.6,30.36,NE,45,0.0,-999.0,94,-99.99,,,0.00,Acu-Link.com,2013-11-13 09:06:00,
2013-11-13 01:22:00,46.0,44.4,30.35,NE,45,0.0,-999.0,94,-99.99,,,0.00,Acu-Link.com,2013-11-13 09:22:00,
2013-11-13 01:37:00,45.9,44.5,30.34,NE,45,0.0,-999.0,95,-99.99,,,0.00,Acu-Link.com,2013-11-13 09:37:00,
2013-11-13 01:52:00,45.3,44.0,30.34,NE,45,0.0,-999.0,95,-99.99,,,0.00,Acu-Link.com,2013-11-13 09:52:00,
2013-11-13 02:08:00,45.1,43.8,30.34,NE,45,0.0,-999.0,95,-99.99,,,0.00,Acu-Link.com,2013-11-13 10:08:00,
2013-11-13 02:23:00,45.3,44.2,30.36,NE,45,0.0,-999.0,96,-99.99,,,0.00,Acu-Link.com,2013-11-13 10:23:00,
2013-11-13 02:38:00,44.8,43.7,30.38,NE,45,0.0,-999.0,96,-99.99,,,0.00,Acu-Link.com,2013-11-13 10:38:00,
2013-11-13 02:53:00,44.8,43.7,30.38,NE,45,0.0,-999.0,96,-99.99,,,0.00,Acu-Link.com,2013-11-13 10:53:00,
2013-11-13 03:08:00,44.4,43.3,30.38,NE,45,0.0,-999.0,96,-99.99,,,0.00,Acu-Link.com,2013-11-13 11:08:00,
2013-11-13 03:23:00,44.2,43.1,30.39,NE,45,0.0,-999.0,96,-99.99,,,0.00,Acu-Link.com,2013-11-13 11:23:00,
2013-11-13 03:39:00,43.9,42.8,30.37,NE,45,0.0,-999.0,96,-99.99,,,0.00,Acu-Link.com,2013-11-13 11:39:00,
2013-11-13 03:54:00,43.7,42.6,30.37,NE,45,0.0,-999.0,96,-99.99,,,0.00,Acu-Link.com,2013-11-13 11:54:00,
2013-11-13 04:09:00,43.2,42.1,30.37,NE,45,0.0,-999.0,96,-99.99,,,0.00,Acu-Link.com,2013-11-13 12:09:00,
2013-11-13 04:24:00,43.3,42.5,30.37,NE,45,0.0,-999.0,97,-99.99,,,0.00,Acu-Link.com,2013-11-13 12:24:00,
2013-11-13 04:40:00,42.4,41.6,30.37,NE,45,0.0,-999.0,97,-99.99,,,0.00,Acu-Link.com,2013-11-13 12:40:00,
2013-11-13 04:55:00,43.5,43.0,30.37,NE,45,0.0,-999.0,98,-99.99,,,0.00,Acu-Link.com,2013-11-13 12:55:00,
2013-11-13 05:10:00,42.6,42.1,30.37,NE,45,0.0,-999.0,98,-99.99,,,0.00,Acu-Link.com,2013-11-13 13:10:00,
2013-11-13 05:26:00,42.1,41.6,30.37,NE,45,0.0,-999.0,98,-99.99,,,0.00,Acu-Link.com,2013-11-13 13:26:00,
2013-11-13 05:41:00,41.9,41.4,30.37,NE,45,0.0,-999.0,98,-99.99,,,0.00,Acu-Link.com,2013-11-13 13:41:00,
2013-11-13 05:56:00,41.7,41.2,30.37,NE,45,0.0,-999.0,98,-99.99,,,0.00,Acu-Link.com,2013-11-13 13:56:00,
2013-11-13 06:11:00,41.9,41.4,30.38,NE,45,0.0,-999.0,98,-99.99,,,0.00,Acu-Link.com,2013-11-13 14:11:00,
2013-11-13 06:27:00,41.5,41.2,30.38,NE,45,0.0,-999.0,99,-99.99,,,0.00,Acu-Link.com,2013-11-13 14:27:00,
2013-11-13 06:42:00,42.6,42.3,30.38,NE,45,0.0,-999.0,99,-99.99,,,0.00,Acu-Link.com,2013-11-13 14:42:00,
2013-11-13 06:57:00,43.9,43.6,30.37,NE,45,0.0,-999.0,99,-99.99,,,0.00,Acu-Link.com,2013-11-13 14:57:00,
2013-11-13 07:12:00,44.8,44.5,30.38,NE,45,0.0,-999.0,99,-99.99,,,0.00,Acu-Link.com,2013-11-13 15:12:00,
2013-11-13 07:28:00,45.3,45.0,30.38,NE,45,0.0,-999.0,99,-99.99,,,0.00,Acu-Link.com,2013-11-13 15:28:00,
2013-11-13 07:43:00,47.1,46.3,30.38,NE,45,2.2,-999.0,97,-99.99,,,0.00,Acu-Link.com,2013-11-13 15:43:00,
2013-11-13 07:58:00,48.4,46.2,30.39,NE,45,1.7,-999.0,92,-99.99,,,0.00,Acu-Link.com,2013-11-13 15:58:00,
2013-11-13 08:14:00,50.2,46.8,30.39,NE,45,2.7,-999.0,88,-99.99,,,0.00,Acu-Link.com,2013-11-13 16:14:00,
2013-11-13 08:29:00,51.4,47.4,30.39,NE,45,2.2,-999.0,86,-99.99,,,0.00,Acu-Link.com,2013-11-13 16:29:00,
2013-11-13 08:44:00,53.8,48.1,30.39,NE,45,2.2,-999.0,81,-99.99,,,0.00,Acu-Link.com,2013-11-13 16:44:00,
2013-11-13 08:59:00,55.9,48.4,30.37,WSW,247,2.7,-999.0,76,-99.99,,,0.00,Acu-Link.com,2013-11-13 16:59:00,
2013-11-13 09:15:00,58.3,49.3,30.37,WSW,247,2.7,-999.0,72,-99.99,,,0.00,Acu-Link.com,2013-11-13 17:15:00,
2013-11-13 09:30:00,58.5,49.5,30.37,WSW,247,1.7,-999.0,72,-99.99,,,0.00,Acu-Link.com,2013-11-13 17:30:00,
2013-11-13 09:45:00,60.3,50.1,30.38,WSW,247,2.7,-999.0,69,-99.99,,,0.00,Acu-Link.com,2013-11-13 17:45:00,
2013-11-13 10:00:00,62.1,50.2,30.38,West,270,3.2,-999.0,65,-99.99,,,0.00,Acu-Link.com,2013-11-13 18:00:00,
2013-11-13 10:16:00,62.2,50.3,30.37,West,270,1.7,-999.0,65,-99.99,,,0.00,Acu-Link.com,2013-11-13 18:16:00,
2013-11-13 10:31:00,62.4,49.2,30.36,West,270,1.7,-999.0,62,-99.99,,,0.00,Acu-Link.com,2013-11-13 18:31:00,
2013-11-13 10:46:00,64.6,49.9,30.35,West,270,2.2,-999.0,59,-99.99,,,0.00,Acu-Link.com,2013-11-13 18:46:00,
2013-11-13 11:01:00,65.3,49.2,30.34,NNE,22,3.7,-999.0,56,-99.99,,,0.00,Acu-Link.com,2013-11-13 19:01:00,
2013-11-13 11:17:00,65.7,49.1,30.33,NNE,22,3.2,-999.0,55,-99.99,,,0.00,Acu-Link.com,2013-11-13 19:17:00,
2013-11-13 11:32:00,67.3,48.5,30.33,NE,45,3.7,-999.0,51,-99.99,,,0.00,Acu-Link.com,2013-11-13 19:32:00,
2013-11-13 11:47:00,66.9,48.2,30.32,West,270,2.7,-999.0,51,-99.99,,,0.00,Acu-Link.com,2013-11-13 19:47:00,
2013-11-13 12:03:00,68.5,48.0,30.30,NNW,337,3.2,-999.0,48,-99.99,,,0.00,Acu-Link.com,2013-11-13 20:03:00,
2013-11-13 12:18:00,69.1,47.4,30.29,NNE,22,2.7,-999.0,46,-99.99,,,0.00,Acu-Link.com,2013-11-13 20:18:00,
2013-11-13 12:33:00,70.0,48.8,30.27,WNW,292,4.7,-999.0,47,-99.99,,,0.00,Acu-Link.com,2013-11-13 20:33:00,
2013-11-13 12:48:00,69.6,47.3,30.25,NNE,22,2.7,-999.0,45,-99.99,,,0.00,Acu-Link.com,2013-11-13 20:48:00,
2013-11-13 13:04:00,70.3,47.3,30.24,North,0,2.7,-999.0,44,-99.99,,,0.00,Acu-Link.com,2013-11-13 21:04:00,
2013-11-13 13:19:00,70.3,46.7,30.24,WNW,292,0.0,-999.0,43,-99.99,,,0.00,Acu-Link.com,2013-11-13 21:19:00,
2013-11-13 13:34:00,71.6,45.3,30.23,West,270,2.7,-999.0,39,-99.99,,,0.00,Acu-Link.com,2013-11-13 21:34:00,
2013-11-13 13:50:00,71.2,46.3,30.23,SW,225,2.2,-999.0,41,-99.99,,,0.00,Acu-Link.com,2013-11-13 21:50:00,
2013-11-13 14:05:00,71.4,46.5,30.22,West,270,2.7,-999.0,41,-99.99,,,0.00,Acu-Link.com,2013-11-13 22:05:00,
2013-11-13 14:20:00,72.3,46.6,30.22,ENE,67,0.0,-999.0,40,-99.99,,,0.00,Acu-Link.com,2013-11-13 22:20:00,
2013-11-13 14:36:00,72.0,46.3,30.20,NW,315,3.2,-999.0,40,-99.99,,,0.00,Acu-Link.com,2013-11-13 22:36:00,
2013-11-13 14:51:00,71.1,46.2,30.20,West,270,2.7,-999.0,41,-99.99,,,0.00,Acu-Link.com,2013-11-13 22:51:00,
2013-11-13 15:06:00,71.8,46.2,30.19,WSW,247,1.7,-999.0,40,-99.99,,,0.00,Acu-Link.com,2013-11-13 23:06:00,
2013-11-13 15:21:00,72.1,46.4,30.19,WSW,247,2.2,-999.0,40,-99.99,,,0.00,Acu-Link.com,2013-11-13 23:21:00,
2013-11-13 15:37:00,72.1,46.4,30.20,WNW,292,2.7,-999.0,40,-99.99,,,0.00,Acu-Link.com,2013-11-13 23:37:00,
2013-11-13 15:52:00,70.5,46.3,30.20,NNW,337,1.7,-999.0,42,-99.99,,,0.00,Acu-Link.com,2013-11-13 23:52:00,
2013-11-13 16:07:00,70.5,46.3,30.20,NNW,337,1.7,-999.0,42,-99.99,,,0.00,Acu-Link.com,2013-11-14 00:07:00,
2013-11-13 16:22:00,69.8,46.9,30.21,NNW,337,1.1,-999.0,44,-99.99,,,0.00,Acu-Link.com,2013-11-14 00:22:00,
2013-11-13 16:38:00,68.2,47.2,30.21,NNW,337,0.0,-999.0,47,-99.99,,,0.00,Acu-Link.com,2013-11-14 00:38:00,
2013-11-13 16:53:00,66.6,47.4,30.21,NNW,337,0.0,-999.0,50,-99.99,,,0.00,Acu-Link.com,2013-11-14 00:53:00,
2013-11-13 17:08:00,64.8,46.8,30.22,NNW,337,0.0,-999.0,52,-99.99,,,0.00,Acu-Link.com,2013-11-14 01:08:00,
2013-11-13 17:24:00,63.0,46.6,30.21,NNW,337,0.0,-999.0,55,-99.99,,,0.00,Acu-Link.com,2013-11-14 01:24:00,
2013-11-13 17:39:00,61.7,45.8,30.22,NNW,337,0.0,-999.0,56,-99.99,,,0.00,Acu-Link.com,2013-11-14 01:39:00,
2013-11-13 17:54:00,60.3,46.4,30.22,NNW,337,0.0,-999.0,60,-99.99,,,0.00,Acu-Link.com,2013-11-14 01:54:00,
2013-11-13 18:10:00,58.8,46.2,30.22,NNW,337,0.0,-999.0,63,-99.99,,,0.00,Acu-Link.com,2013-11-14 02:10:00,
2013-11-13 18:25:00,57.9,45.4,30.23,NNW,337,0.0,-999.0,63,-99.99,,,0.00,Acu-Link.com,2013-11-14 02:25:00,
2013-11-13 18:40:00,57.0,47.3,30.23,NNW,337,0.0,-999.0,70,-99.99,,,0.00,Acu-Link.com,2013-11-14 02:40:00,
2013-11-13 18:56:00,55.9,46.3,30.22,NNW,337,0.0,-999.0,70,-99.99,,,0.00,Acu-Link.com,2013-11-14 02:56:00,
2013-11-13 19:11:00,55.0,45.4,30.22,NNW,337,0.0,-999.0,70,-99.99,,,0.00,Acu-Link.com,2013-11-14 03:11:00,
2013-11-13 19:26:00,54.3,46.2,30.22,NNW,337,0.0,-999.0,74,-99.99,,,0.00,Acu-Link.com,2013-11-14 03:26:00,
2013-11-13 19:42:00,52.7,45.7,30.22,NNW,337,0.0,-999.0,77,-99.99,,,0.00,Acu-Link.com,2013-11-14 03:42:00,
2013-11-13 19:57:00,52.2,45.6,30.21,NNW,337,0.0,-999.0,78,-99.99,,,0.00,Acu-Link.com,2013-11-14 03:57:00,
2013-11-13 20:12:00,52.9,46.2,30.22,NNW,337,0.0,-999.0,78,-99.99,,,0.00,Acu-Link.com,2013-11-14 04:12:00,
2013-11-13 20:27:00,52.0,45.7,30.22,NNW,337,0.0,-999.0,79,-99.99,,,0.00,Acu-Link.com,2013-11-14 04:27:00,
2013-11-13 20:43:00,51.3,45.3,30.23,NNW,337,0.0,-999.0,80,-99.99,,,0.00,Acu-Link.com,2013-11-14 04:43:00,
2013-11-13 20:58:00,51.1,46.1,30.22,NNW,337,0.0,-999.0,83,-99.99,,,0.00,Acu-Link.com,2013-11-14 04:58:00,
2013-11-13 21:13:00,51.1,45.8,30.22,NNW,337,0.0,-999.0,82,-99.99,,,0.00,Acu-Link.com,2013-11-14 05:13:00,
2013-11-13 21:29:00,50.4,45.1,30.22,NNW,337,0.0,-999.0,82,-99.99,,,0.00,Acu-Link.com,2013-11-14 05:29:00,
2013-11-13 21:44:00,50.2,45.2,30.21,NNW,337,0.0,-999.0,83,-99.99,,,0.00,Acu-Link.com,2013-11-14 05:44:00,
2013-11-13 22:00:00,50.4,45.4,30.22,NNW,337,0.0,-999.0,83,-99.99,,,0.00,Acu-Link.com,2013-11-14 06:00:00,
2013-11-13 22:15:00,49.8,44.8,30.22,NNW,337,0.0,-999.0,83,-99.99,,,0.00,Acu-Link.com,2013-11-14 06:15:00,
2013-11-13 22:30:00,49.1,44.5,30.23,NNW,337,0.0,-999.0,84,-99.99,,,0.00,Acu-Link.com,2013-11-14 06:30:00,
2013-11-13 22:46:00,49.1,44.5,30.23,NNW,337,0.0,-999.0,84,-99.99,,,0.00,Acu-Link.com,2013-11-14 06:46:00,
2013-11-13 23:01:00,48.4,44.4,30.22,NNW,337,0.0,-999.0,86,-99.99,,,0.00,Acu-Link.com,2013-11-14 07:01:00,
2013-11-13 23:16:00,48.0,44.0,30.22,NNW,337,0.0,-999.0,86,-99.99,,,0.00,Acu-Link.com,2013-11-14 07:16:00,
2013-11-13 23:32:00,47.7,44.0,30.22,NNW,337,0.0,-999.0,87,-99.99,,,0.00,Acu-Link.com,2013-11-14 07:32:00,
2013-11-13 23:47:00,47.5,44.1,30.22,NNW,337,0.0,-999.0,88,-99.99,,,0.00,Acu-Link.com,2013-11-14 07:47:00,